EDHL

Lübeck Airport

Airport
ICAO code
EDHL
IATA Code
LBC
Summary
ICAO Region
EUR
ICAO Territory
Location

Lübeck, Schleswig-Holstein

Serving
Lübeck
Elevation
85 ft
Coordinates
53° 48' 19" N , 10° 42' 6" E
KCC
Metar
Observation
EDHL 271020Z 27007KT 170V320 9000 -DZ BKN008 11/10 Q0991
Station
Luebeck-Blankensee
Date/Time
2022-09-27 10:20:00
Wind direction
270°
Wind speed
07 kts
Lowest cloud amount
broken clouds
Temperature
11°C
Dew point
10°C
Humidity
93%
QNH
991 hPa
Weather condition
n/a

Description

International airport located 8km south of the city of Lübeck, in the north of Germany.

Climatology

Temperate Marine climate/Oceanic climate (Köppen climate classification Cfb) - Moderately cool summer and comparatively warm winter.

Runways

Designator Length Width Surface Rops
7/25 2102 60 ASP Yes/Yes

Airport map

Aerial View

SKYbrary Partners:

Safety knowledge contributed by: